sensor_id;sensor_type;location;lat;lon;timestamp;P1;durP1;ratioP1;P2;durP2;ratioP2
42988;SDS011;28622;43.716;20.668;2023-02-18T00:02:17;96.30;;;39.47;;
42988;SDS011;28622;43.716;20.668;2023-02-18T00:04:43;102.78;;;36.05;;
42988;SDS011;28622;43.716;20.668;2023-02-18T00:07:09;70.93;;;32.13;;
42988;SDS011;28622;43.716;20.668;2023-02-18T00:09:34;72.57;;;32.03;;
42988;SDS011;28622;43.716;20.668;2023-02-18T00:12:02;55.58;;;27.20;;
42988;SDS011;28622;43.716;20.668;2023-02-18T00:14:28;41.40;;;22.40;;
42988;SDS011;28622;43.716;20.668;2023-02-18T00:16:54;51.95;;;23.10;;
42988;SDS011;28622;43.716;20.668;2023-02-18T00:19:20;58.47;;;23.60;;
42988;SDS011;28622;43.716;20.668;2023-02-18T00:21:46;58.97;;;27.38;;
42988;SDS011;28622;43.716;20.668;2023-02-18T00:24:13;61.45;;;27.20;;
42988;SDS011;28622;43.716;20.668;2023-02-18T00:26:39;63.28;;;27.00;;
42988;SDS011;28622;43.716;20.668;2023-02-18T00:29:06;51.95;;;23.85;;
42988;SDS011;28622;43.716;20.668;2023-02-18T00:31:33;49.35;;;22.38;;
42988;SDS011;28622;43.716;20.668;2023-02-18T00:34:01;48.97;;;21.50;;
42988;SDS011;28622;43.716;20.668;2023-02-18T00:36:28;52.88;;;23.42;;
42988;SDS011;28622;43.716;20.668;2023-02-18T00:38:55;48.42;;;23.25;;
42988;SDS011;28622;43.716;20.668;2023-02-18T00:41:23;59.63;;;25.30;;
42988;SDS011;28622;43.716;20.668;2023-02-18T00:43:50;59.92;;;27.08;;
42988;SDS011;28622;43.716;20.668;2023-02-18T00:46:16;66.53;;;31.67;;
42988;SDS011;28622;43.716;20.668;2023-02-18T00:48:42;75.22;;;32.78;;
42988;SDS011;28622;43.716;20.668;2023-02-18T00:51:08;68.68;;;30.30;;
42988;SDS011;28622;43.716;20.668;2023-02-18T00:53:34;63.20;;;28.75;;
42988;SDS011;28622;43.716;20.668;2023-02-18T00:56:00;61.58;;;28.35;;
42988;SDS011;28622;43.716;20.668;2023-02-18T00:58:26;73.95;;;34.17;;
42988;SDS011;28622;43.716;20.668;2023-02-18T01:00:52;79.35;;;34.22;;
42988;SDS011;28622;43.716;20.668;2023-02-18T01:03:18;71.10;;;32.55;;
42988;SDS011;28622;43.716;20.668;2023-02-18T01:05:44;82.20;;;33.17;;
42988;SDS011;28622;43.716;20.668;2023-02-18T01:08:10;71.43;;;33.03;;
42988;SDS011;28622;43.716;20.668;2023-02-18T01:10:39;75.82;;;31.75;;
42988;SDS011;28622;43.716;20.668;2023-02-18T01:13:06;73.18;;;31.42;;
42988;SDS011;28622;43.716;20.668;2023-02-18T01:15:32;66.55;;;29.98;;
42988;SDS011;28622;43.716;20.668;2023-02-18T01:17:58;58.40;;;27.08;;
42988;SDS011;28622;43.716;20.668;2023-02-18T01:20:24;68.32;;;27.33;;
42988;SDS011;28622;43.716;20.668;2023-02-18T01:22:51;60.42;;;26.00;;
42988;SDS011;28622;43.716;20.668;2023-02-18T01:25:17;61.10;;;27.67;;
42988;SDS011;28622;43.716;20.668;2023-02-18T01:27:43;70.53;;;28.52;;
42988;SDS011;28622;43.716;20.668;2023-02-18T01:30:09;63.38;;;26.65;;
42988;SDS011;28622;43.716;20.668;2023-02-18T01:32:38;59.05;;;27.23;;
42988;SDS011;28622;43.716;20.668;2023-02-18T01:35:04;74.22;;;29.70;;
42988;SDS011;28622;43.716;20.668;2023-02-18T01:37:31;72.45;;;32.03;;
42988;SDS011;28622;43.716;20.668;2023-02-18T01:39:58;71.53;;;29.45;;
42988;SDS011;28622;43.716;20.668;2023-02-18T01:42:25;62.97;;;28.98;;
42988;SDS011;28622;43.716;20.668;2023-02-18T01:44:52;58.92;;;22.90;;
42988;SDS011;28622;43.716;20.668;2023-02-18T01:47:19;45.38;;;19.90;;
42988;SDS011;28622;43.716;20.668;2023-02-18T01:49:45;57.63;;;24.35;;
42988;SDS011;28622;43.716;20.668;2023-02-18T01:52:17;58.65;;;22.25;;
42988;SDS011;28622;43.716;20.668;2023-02-18T01:54:48;47.70;;;22.48;;
42988;SDS011;28622;43.716;20.668;2023-02-18T01:57:19;50.67;;;22.80;;
42988;SDS011;28622;43.716;20.668;2023-02-18T01:59:57;52.50;;;21.85;;
42988;SDS011;28622;43.716;20.668;2023-02-18T02:02:26;39.03;;;18.50;;
42988;SDS011;28622;43.716;20.668;2023-02-18T02:04:53;46.95;;;21.15;;
42988;SDS011;28622;43.716;20.668;2023-02-18T02:07:20;51.13;;;21.67;;
42988;SDS011;28622;43.716;20.668;2023-02-18T02:09:48;46.30;;;20.48;;
42988;SDS011;28622;43.716;20.668;2023-02-18T02:25:42;35.00;;;16.67;;
42988;SDS011;28622;43.716;20.668;2023-02-18T02:37:01;34.40;;;17.02;;
42988;SDS011;28622;43.716;20.668;2023-02-18T02:39:37;35.25;;;18.88;;
42988;SDS011;28622;43.716;20.668;2023-02-18T02:42:14;47.60;;;20.13;;
42988;SDS011;28622;43.716;20.668;2023-02-18T02:47:37;41.63;;;19.00;;
42988;SDS011;28622;43.716;20.668;2023-02-18T02:51:12;38.63;;;18.33;;
42988;SDS011;28622;43.716;20.668;2023-02-18T02:53:13;38.55;;;18.05;;
42988;SDS011;28622;43.716;20.668;2023-02-18T02:55:48;33.72;;;15.20;;
42988;SDS011;28622;43.716;20.668;2023-02-18T02:58:15;34.08;;;14.65;;
42988;SDS011;28622;43.716;20.668;2023-02-18T03:06:42;30.05;;;14.35;;
42988;SDS011;28622;43.716;20.668;2023-02-18T03:15:21;33.33;;;16.63;;
42988;SDS011;28622;43.716;20.668;2023-02-18T03:17:34;30.60;;;14.82;;
42988;SDS011;28622;43.716;20.668;2023-02-18T03:20:54;34.65;;;17.25;;
42988;SDS011;28622;43.716;20.668;2023-02-18T03:23:02;35.78;;;16.77;;
42988;SDS011;28622;43.716;20.668;2023-02-18T03:25:32;34.87;;;15.27;;
42988;SDS011;28622;43.716;20.668;2023-02-18T03:28:01;33.05;;;15.13;;
42988;SDS011;28622;43.716;20.668;2023-02-18T03:30:32;42.63;;;18.73;;
42988;SDS011;28622;43.716;20.668;2023-02-18T03:33:08;37.70;;;17.63;;
42988;SDS011;28622;43.716;20.668;2023-02-18T03:35:38;35.70;;;15.40;;
42988;SDS011;28622;43.716;20.668;2023-02-18T03:38:08;36.72;;;14.63;;
42988;SDS011;28622;43.716;20.668;2023-02-18T03:40:51;25.38;;;13.65;;
42988;SDS011;28622;43.716;20.668;2023-02-18T03:43:16;31.48;;;16.20;;
42988;SDS011;28622;43.716;20.668;2023-02-18T03:45:42;26.48;;;13.23;;
42988;SDS011;28622;43.716;20.668;2023-02-18T03:48:08;26.98;;;11.63;;
42988;SDS011;28622;43.716;20.668;2023-02-18T03:50:34;25.88;;;11.57;;
42988;SDS011;28622;43.716;20.668;2023-02-18T03:53:00;24.00;;;9.82;;
42988;SDS011;28622;43.716;20.668;2023-02-18T03:55:25;14.73;;;7.55;;
42988;SDS011;28622;43.716;20.668;2023-02-18T03:57:51;11.13;;;5.75;;
42988;SDS011;28622;43.716;20.668;2023-02-18T04:00:17;8.65;;;4.55;;
42988;SDS011;28622;43.716;20.668;2023-02-18T04:02:44;6.60;;;4.13;;
42988;SDS011;28622;43.716;20.668;2023-02-18T04:05:10;8.35;;;3.80;;
42988;SDS011;28622;43.716;20.668;2023-02-18T04:07:37;18.30;;;4.90;;
42988;SDS011;28622;43.716;20.668;2023-02-18T04:10:03;10.57;;;4.45;;
42988;SDS011;28622;43.716;20.668;2023-02-18T04:12:30;8.23;;;4.13;;
42988;SDS011;28622;43.716;20.668;2023-02-18T04:14:55;11.70;;;5.72;;
42988;SDS011;28622;43.716;20.668;2023-02-18T04:17:21;13.15;;;5.82;;
42988;SDS011;28622;43.716;20.668;2023-02-18T04:19:47;14.50;;;7.57;;
42988;SDS011;28622;43.716;20.668;2023-02-18T04:22:13;16.25;;;6.50;;
42988;SDS011;28622;43.716;20.668;2023-02-18T04:24:38;19.75;;;6.18;;
42988;SDS011;28622;43.716;20.668;2023-02-18T04:27:04;10.38;;;5.78;;
42988;SDS011;28622;43.716;20.668;2023-02-18T04:29:30;29.65;;;12.57;;
42988;SDS011;28622;43.716;20.668;2023-02-18T04:31:56;31.50;;;13.02;;
42988;SDS011;28622;43.716;20.668;2023-02-18T04:34:21;26.30;;;10.95;;
42988;SDS011;28622;43.716;20.668;2023-02-18T04:36:47;28.42;;;12.07;;
42988;SDS011;28622;43.716;20.668;2023-02-18T04:39:13;24.60;;;10.48;;
42988;SDS011;28622;43.716;20.668;2023-02-18T04:41:39;24.85;;;10.52;;
42988;SDS011;28622;43.716;20.668;2023-02-18T04:44:04;26.08;;;11.00;;
42988;SDS011;28622;43.716;20.668;2023-02-18T04:46:30;20.88;;;9.48;;
42988;SDS011;28622;43.716;20.668;2023-02-18T04:48:56;16.35;;;9.55;;
42988;SDS011;28622;43.716;20.668;2023-02-18T04:51:22;20.23;;;9.27;;
42988;SDS011;28622;43.716;20.668;2023-02-18T04:53:48;17.40;;;9.30;;
42988;SDS011;28622;43.716;20.668;2023-02-18T04:56:13;16.33;;;7.13;;
42988;SDS011;28622;43.716;20.668;2023-02-18T04:58:39;16.08;;;8.30;;
42988;SDS011;28622;43.716;20.668;2023-02-18T05:01:05;15.45;;;7.88;;
42988;SDS011;28622;43.716;20.668;2023-02-18T05:03:31;20.48;;;8.38;;
42988;SDS011;28622;43.716;20.668;2023-02-18T05:05:57;19.05;;;8.15;;
42988;SDS011;28622;43.716;20.668;2023-02-18T05:08:23;20.55;;;8.20;;
42988;SDS011;28622;43.716;20.668;2023-02-18T05:10:49;15.18;;;7.50;;
42988;SDS011;28622;43.716;20.668;2023-02-18T05:13:15;18.05;;;7.07;;
42988;SDS011;28622;43.716;20.668;2023-02-18T05:15:41;15.50;;;7.10;;
42988;SDS011;28622;43.716;20.668;2023-02-18T05:18:06;15.20;;;7.88;;
42988;SDS011;28622;43.716;20.668;2023-02-18T05:20:32;15.98;;;7.85;;
42988;SDS011;28622;43.716;20.668;2023-02-18T05:22:59;19.05;;;7.95;;
42988;SDS011;28622;43.716;20.668;2023-02-18T05:25:24;14.43;;;7.00;;
42988;SDS011;28622;43.716;20.668;2023-02-18T05:27:50;14.85;;;6.50;;
42988;SDS011;28622;43.716;20.668;2023-02-18T05:30:16;11.23;;;6.40;;
42988;SDS011;28622;43.716;20.668;2023-02-18T05:32:42;11.32;;;6.68;;
42988;SDS011;28622;43.716;20.668;2023-02-18T05:35:08;23.35;;;9.05;;
42988;SDS011;28622;43.716;20.668;2023-02-18T05:37:34;19.88;;;10.07;;
42988;SDS011;28622;43.716;20.668;2023-02-18T05:40:00;31.35;;;14.55;;
42988;SDS011;28622;43.716;20.668;2023-02-18T05:42:25;32.08;;;12.82;;
42988;SDS011;28622;43.716;20.668;2023-02-18T05:44:51;28.08;;;12.70;;
42988;SDS011;28622;43.716;20.668;2023-02-18T05:47:17;26.45;;;12.43;;
42988;SDS011;28622;43.716;20.668;2023-02-18T05:49:43;34.80;;;14.85;;
42988;SDS011;28622;43.716;20.668;2023-02-18T05:52:09;26.90;;;13.07;;
42988;SDS011;28622;43.716;20.668;2023-02-18T05:54:37;31.20;;;14.02;;
42988;SDS011;28622;43.716;20.668;2023-02-18T05:57:03;25.52;;;11.70;;
42988;SDS011;28622;43.716;20.668;2023-02-18T05:59:29;26.80;;;10.80;;
42988;SDS011;28622;43.716;20.668;2023-02-18T06:01:55;19.98;;;9.73;;
42988;SDS011;28622;43.716;20.668;2023-02-18T06:04:21;21.33;;;11.70;;
42988;SDS011;28622;43.716;20.668;2023-02-18T06:06:47;17.67;;;7.32;;
42988;SDS011;28622;43.716;20.668;2023-02-18T06:09:13;17.67;;;8.57;;
42988;SDS011;28622;43.716;20.668;2023-02-18T06:11:38;23.52;;;11.15;;
42988;SDS011;28622;43.716;20.668;2023-02-18T06:14:04;25.60;;;11.25;;
42988;SDS011;28622;43.716;20.668;2023-02-18T06:16:30;25.70;;;11.15;;
42988;SDS011;28622;43.716;20.668;2023-02-18T06:18:56;26.45;;;11.68;;
42988;SDS011;28622;43.716;20.668;2023-02-18T06:21:23;25.67;;;11.48;;
42988;SDS011;28622;43.716;20.668;2023-02-18T06:23:48;24.73;;;12.40;;
42988;SDS011;28622;43.716;20.668;2023-02-18T06:26:14;30.65;;;14.18;;
42988;SDS011;28622;43.716;20.668;2023-02-18T06:28:40;34.45;;;15.32;;
42988;SDS011;28622;43.716;20.668;2023-02-18T06:31:06;27.33;;;12.80;;
42988;SDS011;28622;43.716;20.668;2023-02-18T06:33:31;40.88;;;20.20;;
42988;SDS011;28622;43.716;20.668;2023-02-18T06:35:58;36.28;;;15.27;;
42988;SDS011;28622;43.716;20.668;2023-02-18T06:38:26;32.33;;;17.38;;
42988;SDS011;28622;43.716;20.668;2023-02-18T06:40:52;35.13;;;17.15;;
42988;SDS011;28622;43.716;20.668;2023-02-18T06:43:18;52.08;;;21.83;;
42988;SDS011;28622;43.716;20.668;2023-02-18T06:45:45;50.55;;;21.63;;
42988;SDS011;28622;43.716;20.668;2023-02-18T06:48:12;36.30;;;17.15;;
42988;SDS011;28622;43.716;20.668;2023-02-18T06:50:39;36.33;;;18.00;;
42988;SDS011;28622;43.716;20.668;2023-02-18T06:53:05;35.75;;;16.20;;
42988;SDS011;28622;43.716;20.668;2023-02-18T06:55:31;28.25;;;12.60;;
42988;SDS011;28622;43.716;20.668;2023-02-18T06:57:57;27.20;;;11.90;;
42988;SDS011;28622;43.716;20.668;2023-02-18T07:00:22;24.80;;;12.80;;
42988;SDS011;28622;43.716;20.668;2023-02-18T07:02:48;23.50;;;12.75;;
42988;SDS011;28622;43.716;20.668;2023-02-18T07:05:14;24.23;;;13.00;;
42988;SDS011;28622;43.716;20.668;2023-02-18T07:07:40;29.80;;;14.35;;
42988;SDS011;28622;43.716;20.668;2023-02-18T07:10:06;37.95;;;17.52;;
42988;SDS011;28622;43.716;20.668;2023-02-18T07:12:32;62.65;;;29.17;;
42988;SDS011;28622;43.716;20.668;2023-02-18T07:14:58;53.97;;;25.02;;
42988;SDS011;28622;43.716;20.668;2023-02-18T07:17:24;41.08;;;19.25;;
42988;SDS011;28622;43.716;20.668;2023-02-18T07:19:50;42.45;;;22.00;;
42988;SDS011;28622;43.716;20.668;2023-02-18T07:22:16;40.17;;;17.83;;
42988;SDS011;28622;43.716;20.668;2023-02-18T07:24:42;39.20;;;18.25;;
42988;SDS011;28622;43.716;20.668;2023-02-18T07:27:07;42.33;;;17.85;;
42988;SDS011;28622;43.716;20.668;2023-02-18T07:29:33;38.78;;;18.35;;
42988;SDS011;28622;43.716;20.668;2023-02-18T07:32:00;35.58;;;16.23;;
42988;SDS011;28622;43.716;20.668;2023-02-18T07:34:26;33.92;;;15.25;;
42988;SDS011;28622;43.716;20.668;2023-02-18T07:36:52;35.42;;;17.20;;
42988;SDS011;28622;43.716;20.668;2023-02-18T07:39:18;40.13;;;18.33;;
42988;SDS011;28622;43.716;20.668;2023-02-18T07:41:45;33.60;;;15.35;;
42988;SDS011;28622;43.716;20.668;2023-02-18T07:44:12;32.85;;;12.43;;
42988;SDS011;28622;43.716;20.668;2023-02-18T07:46:41;18.80;;;8.75;;
42988;SDS011;28622;43.716;20.668;2023-02-18T07:49:07;17.42;;;7.68;;
42988;SDS011;28622;43.716;20.668;2023-02-18T07:51:33;17.88;;;7.90;;
42988;SDS011;28622;43.716;20.668;2023-02-18T07:53:59;17.77;;;6.53;;
42988;SDS011;28622;43.716;20.668;2023-02-18T07:56:25;13.60;;;6.45;;
42988;SDS011;28622;43.716;20.668;2023-02-18T07:58:50;13.98;;;6.88;;
42988;SDS011;28622;43.716;20.668;2023-02-18T08:01:16;16.25;;;6.95;;
42988;SDS011;28622;43.716;20.668;2023-02-18T08:03:42;15.00;;;6.82;;
42988;SDS011;28622;43.716;20.668;2023-02-18T08:06:12;17.95;;;7.78;;
42988;SDS011;28622;43.716;20.668;2023-02-18T08:08:50;20.23;;;8.25;;
42988;SDS011;28622;43.716;20.668;2023-02-18T08:11:15;17.83;;;7.65;;
42988;SDS011;28622;43.716;20.668;2023-02-18T08:13:41;12.77;;;6.28;;
42988;SDS011;28622;43.716;20.668;2023-02-18T08:16:08;25.10;;;10.23;;
42988;SDS011;28622;43.716;20.668;2023-02-18T08:18:34;25.70;;;12.55;;
42988;SDS011;28622;43.716;20.668;2023-02-18T08:21:00;19.60;;;10.30;;
42988;SDS011;28622;43.716;20.668;2023-02-18T08:23:26;29.92;;;12.60;;
42988;SDS011;28622;43.716;20.668;2023-02-18T08:25:52;38.30;;;14.40;;
42988;SDS011;28622;43.716;20.668;2023-02-18T08:28:19;46.08;;;18.50;;
42988;SDS011;28622;43.716;20.668;2023-02-18T08:30:46;46.88;;;19.25;;
42988;SDS011;28622;43.716;20.668;2023-02-18T08:33:14;32.85;;;14.60;;
42988;SDS011;28622;43.716;20.668;2023-02-18T08:35:40;31.63;;;14.48;;
42988;SDS011;28622;43.716;20.668;2023-02-18T08:38:06;51.10;;;20.83;;
42988;SDS011;28622;43.716;20.668;2023-02-18T08:40:32;36.22;;;17.05;;
42988;SDS011;28622;43.716;20.668;2023-02-18T08:42:58;24.60;;;12.85;;
42988;SDS011;28622;43.716;20.668;2023-02-18T08:45:24;29.45;;;12.98;;
42988;SDS011;28622;43.716;20.668;2023-02-18T08:47:50;20.45;;;11.32;;
42988;SDS011;28622;43.716;20.668;2023-02-18T08:50:16;22.05;;;11.07;;
42988;SDS011;28622;43.716;20.668;2023-02-18T08:52:42;25.45;;;11.65;;
42988;SDS011;28622;43.716;20.668;2023-02-18T08:55:08;24.40;;;11.25;;
42988;SDS011;28622;43.716;20.668;2023-02-18T08:57:34;12.18;;;6.45;;
42988;SDS011;28622;43.716;20.668;2023-02-18T09:00:00;8.30;;;4.68;;
42988;SDS011;28622;43.716;20.668;2023-02-18T09:02:25;5.90;;;3.83;;
42988;SDS011;28622;43.716;20.668;2023-02-18T09:04:53;5.65;;;2.92;;
42988;SDS011;28622;43.716;20.668;2023-02-18T09:07:18;5.47;;;2.97;;
42988;SDS011;28622;43.716;20.668;2023-02-18T09:09:44;4.57;;;2.45;;
42988;SDS011;28622;43.716;20.668;2023-02-18T09:12:10;5.60;;;2.80;;
42988;SDS011;28622;43.716;20.668;2023-02-18T09:14:36;3.63;;;2.03;;
42988;SDS011;28622;43.716;20.668;2023-02-18T09:17:01;4.93;;;2.42;;
42988;SDS011;28622;43.716;20.668;2023-02-18T09:19:27;6.03;;;1.98;;
42988;SDS011;28622;43.716;20.668;2023-02-18T09:21:53;6.60;;;2.15;;
42988;SDS011;28622;43.716;20.668;2023-02-18T09:24:21;3.45;;;2.10;;
42988;SDS011;28622;43.716;20.668;2023-02-18T09:26:48;3.55;;;1.98;;
42988;SDS011;28622;43.716;20.668;2023-02-18T09:29:14;5.68;;;2.55;;
42988;SDS011;28622;43.716;20.668;2023-02-18T09:31:40;6.22;;;3.05;;
42988;SDS011;28622;43.716;20.668;2023-02-18T09:34:06;8.82;;;3.25;;
42988;SDS011;28622;43.716;20.668;2023-02-18T09:36:32;9.43;;;4.00;;
42988;SDS011;28622;43.716;20.668;2023-02-18T09:38:58;7.75;;;4.00;;
42988;SDS011;28622;43.716;20.668;2023-02-18T09:41:38;8.38;;;3.88;;
42988;SDS011;28622;43.716;20.668;2023-02-18T09:44:12;8.38;;;3.30;;
42988;SDS011;28622;43.716;20.668;2023-02-18T09:46:51;10.48;;;4.28;;
42988;SDS011;28622;43.716;20.668;2023-02-18T09:49:27;7.50;;;3.50;;
42988;SDS011;28622;43.716;20.668;2023-02-18T09:51:59;5.05;;;2.92;;
42988;SDS011;28622;43.716;20.668;2023-02-18T09:54:36;10.13;;;3.95;;
42988;SDS011;28622;43.716;20.668;2023-02-18T09:57:03;12.25;;;3.65;;
42988;SDS011;28622;43.716;20.668;2023-02-18T09:59:31;8.73;;;3.13;;
42988;SDS011;28622;43.716;20.668;2023-02-18T10:01:57;10.32;;;4.10;;
42988;SDS011;28622;43.716;20.668;2023-02-18T10:04:43;5.13;;;2.25;;
42988;SDS011;28622;43.716;20.668;2023-02-18T10:07:24;6.18;;;3.00;;
42988;SDS011;28622;43.716;20.668;2023-02-18T10:09:56;7.18;;;2.92;;
42988;SDS011;28622;43.716;20.668;2023-02-18T10:12:25;5.03;;;2.47;;
42988;SDS011;28622;43.716;20.668;2023-02-18T10:14:54;5.20;;;2.67;;
42988;SDS011;28622;43.716;20.668;2023-02-18T10:17:23;4.65;;;2.50;;
42988;SDS011;28622;43.716;20.668;2023-02-18T10:19:53;4.93;;;2.50;;
42988;SDS011;28622;43.716;20.668;2023-02-18T10:22:21;12.80;;;2.65;;
42988;SDS011;28622;43.716;20.668;2023-02-18T10:24:53;3.35;;;2.03;;
42988;SDS011;28622;43.716;20.668;2023-02-18T10:29:51;2.33;;;1.67;;
42988;SDS011;28622;43.716;20.668;2023-02-18T10:34:48;5.10;;;1.98;;
42988;SDS011;28622;43.716;20.668;2023-02-18T10:40:17;3.92;;;1.75;;
42988;SDS011;28622;43.716;20.668;2023-02-18T10:42:56;5.63;;;2.17;;
42988;SDS011;28622;43.716;20.668;2023-02-18T10:51:15;3.15;;;1.73;;
42988;SDS011;28622;43.716;20.668;2023-02-18T10:53:47;4.47;;;2.40;;
42988;SDS011;28622;43.716;20.668;2023-02-18T10:59:22;7.05;;;2.50;;
42988;SDS011;28622;43.716;20.668;2023-02-18T11:02:09;7.53;;;2.60;;
42988;SDS011;28622;43.716;20.668;2023-02-18T11:04:41;8.07;;;2.95;;
42988;SDS011;28622;43.716;20.668;2023-02-18T11:07:18;7.57;;;3.17;;
42988;SDS011;28622;43.716;20.668;2023-02-18T11:10:30;5.38;;;2.67;;
42988;SDS011;28622;43.716;20.668;2023-02-18T11:12:47;3.70;;;2.40;;
42988;SDS011;28622;43.716;20.668;2023-02-18T11:17:44;9.88;;;3.83;;
42988;SDS011;28622;43.716;20.668;2023-02-18T11:22:53;7.00;;;3.08;;
42988;SDS011;28622;43.716;20.668;2023-02-18T11:25:39;4.88;;;2.70;;
42988;SDS011;28622;43.716;20.668;2023-02-18T11:30:42;6.65;;;3.35;;
42988;SDS011;28622;43.716;20.668;2023-02-18T11:35:51;5.47;;;2.93;;
42988;SDS011;28622;43.716;20.668;2023-02-18T11:38:53;5.65;;;2.40;;
42988;SDS011;28622;43.716;20.668;2023-02-18T11:41:39;3.10;;;1.90;;
42988;SDS011;28622;43.716;20.668;2023-02-18T11:44:28;6.68;;;2.05;;
42988;SDS011;28622;43.716;20.668;2023-02-18T11:47:02;2.80;;;1.73;;
42988;SDS011;28622;43.716;20.668;2023-02-18T11:49:30;7.30;;;2.20;;
42988;SDS011;28622;43.716;20.668;2023-02-18T11:52:22;6.32;;;2.63;;
42988;SDS011;28622;43.716;20.668;2023-02-18T11:57:44;7.28;;;3.15;;
42988;SDS011;28622;43.716;20.668;2023-02-18T12:00:23;7.93;;;3.28;;
42988;SDS011;28622;43.716;20.668;2023-02-18T12:03:29;6.95;;;2.75;;
42988;SDS011;28622;43.716;20.668;2023-02-18T12:06:00;5.35;;;2.38;;
42988;SDS011;28622;43.716;20.668;2023-02-18T12:08:31;5.20;;;2.65;;
42988;SDS011;28622;43.716;20.668;2023-02-18T12:13:47;6.68;;;3.13;;
42988;SDS011;28622;43.716;20.668;2023-02-18T12:16:25;10.05;;;3.28;;
42988;SDS011;28622;43.716;20.668;2023-02-18T12:24:24;5.28;;;2.58;;
42988;SDS011;28622;43.716;20.668;2023-02-18T12:38:09;5.13;;;2.57;;
42988;SDS011;28622;43.716;20.668;2023-02-18T12:41:01;4.75;;;2.15;;
42988;SDS011;28622;43.716;20.668;2023-02-18T12:51:24;7.32;;;2.10;;
42988;SDS011;28622;43.716;20.668;2023-02-18T12:56:58;7.13;;;3.00;;
42988;SDS011;28622;43.716;20.668;2023-02-18T13:00:08;4.40;;;2.10;;
42988;SDS011;28622;43.716;20.668;2023-02-18T13:08:19;2.25;;;1.50;;
42988;SDS011;28622;43.716;20.668;2023-02-18T13:13:35;2.45;;;1.25;;
42988;SDS011;28622;43.716;20.668;2023-02-18T13:16:07;1.55;;;1.30;;
42988;SDS011;28622;43.716;20.668;2023-02-18T13:18:39;2.53;;;1.48;;
42988;SDS011;28622;43.716;20.668;2023-02-18T13:21:13;2.53;;;1.30;;
42988;SDS011;28622;43.716;20.668;2023-02-18T13:23:51;3.95;;;1.52;;
42988;SDS011;28622;43.716;20.668;2023-02-18T13:26:22;2.88;;;1.20;;
42988;SDS011;28622;43.716;20.668;2023-02-18T13:31:51;1.70;;;1.13;;
42988;SDS011;28622;43.716;20.668;2023-02-18T13:40:02;6.20;;;1.77;;
42988;SDS011;28622;43.716;20.668;2023-02-18T13:52:47;6.90;;;2.17;;
42988;SDS011;28622;43.716;20.668;2023-02-18T13:55:25;2.85;;;1.65;;
42988;SDS011;28622;43.716;20.668;2023-02-18T13:58:19;3.53;;;1.50;;
42988;SDS011;28622;43.716;20.668;2023-02-18T14:00:53;5.05;;;1.45;;
42988;SDS011;28622;43.716;20.668;2023-02-18T14:03:35;3.53;;;1.42;;
42988;SDS011;28622;43.716;20.668;2023-02-18T14:08:40;4.38;;;1.80;;
42988;SDS011;28622;43.716;20.668;2023-02-18T14:13:55;3.53;;;1.75;;
42988;SDS011;28622;43.716;20.668;2023-02-18T14:19:40;2.90;;;1.48;;
42988;SDS011;28622;43.716;20.668;2023-02-18T14:22:25;4.35;;;1.90;;
42988;SDS011;28622;43.716;20.668;2023-02-18T14:27:40;4.50;;;1.70;;
42988;SDS011;28622;43.716;20.668;2023-02-18T14:32:45;4.22;;;2.33;;
42988;SDS011;28622;43.716;20.668;2023-02-18T14:51:50;9.52;;;3.80;;
42988;SDS011;28622;43.716;20.668;2023-02-18T14:54:17;6.40;;;2.88;;
42988;SDS011;28622;43.716;20.668;2023-02-18T14:56:53;5.63;;;2.72;;
42988;SDS011;28622;43.716;20.668;2023-02-18T14:59:30;9.63;;;3.42;;
42988;SDS011;28622;43.716;20.668;2023-02-18T15:02:00;7.97;;;3.83;;
42988;SDS011;28622;43.716;20.668;2023-02-18T15:04:26;18.10;;;4.43;;
42988;SDS011;28622;43.716;20.668;2023-02-18T15:07:02;17.73;;;5.70;;
42988;SDS011;28622;43.716;20.668;2023-02-18T15:09:29;12.73;;;5.05;;
42988;SDS011;28622;43.716;20.668;2023-02-18T15:11:57;15.32;;;6.32;;
42988;SDS011;28622;43.716;20.668;2023-02-18T15:14:28;17.88;;;6.65;;
42988;SDS011;28622;43.716;20.668;2023-02-18T15:16:56;13.35;;;6.75;;
42988;SDS011;28622;43.716;20.668;2023-02-18T15:19:27;13.43;;;6.95;;
42988;SDS011;28622;43.716;20.668;2023-02-18T15:21:59;15.85;;;6.97;;
42988;SDS011;28622;43.716;20.668;2023-02-18T15:24:34;14.15;;;6.75;;
42988;SDS011;28622;43.716;20.668;2023-02-18T15:27:10;21.00;;;6.43;;
42988;SDS011;28622;43.716;20.668;2023-02-18T15:29:38;24.92;;;8.85;;
42988;SDS011;28622;43.716;20.668;2023-02-18T15:34:42;43.65;;;17.25;;
42988;SDS011;28622;43.716;20.668;2023-02-18T15:37:10;59.00;;;20.20;;
42988;SDS011;28622;43.716;20.668;2023-02-18T15:39:38;66.22;;;26.80;;
42988;SDS011;28622;43.716;20.668;2023-02-18T15:42:06;68.07;;;30.65;;
42988;SDS011;28622;43.716;20.668;2023-02-18T15:44:46;79.72;;;27.02;;
42988;SDS011;28622;43.716;20.668;2023-02-18T15:47:16;52.92;;;24.08;;
42988;SDS011;28622;43.716;20.668;2023-02-18T15:49:46;58.08;;;23.80;;
42988;SDS011;28622;43.716;20.668;2023-02-18T15:52:21;60.58;;;26.92;;
42988;SDS011;28622;43.716;20.668;2023-02-18T15:54:49;61.03;;;26.58;;
42988;SDS011;28622;43.716;20.668;2023-02-18T15:57:14;56.08;;;24.05;;
42988;SDS011;28622;43.716;20.668;2023-02-18T15:59:53;48.42;;;21.70;;
42988;SDS011;28622;43.716;20.668;2023-02-18T16:02:22;46.60;;;22.25;;
42988;SDS011;28622;43.716;20.668;2023-02-18T16:04:53;55.95;;;23.25;;
42988;SDS011;28622;43.716;20.668;2023-02-18T16:07:26;50.78;;;22.35;;
42988;SDS011;28622;43.716;20.668;2023-02-18T16:10:07;57.25;;;26.02;;
42988;SDS011;28622;43.716;20.668;2023-02-18T16:12:33;59.83;;;27.60;;
42988;SDS011;28622;43.716;20.668;2023-02-18T16:15:01;58.80;;;26.80;;
42988;SDS011;28622;43.716;20.668;2023-02-18T16:17:28;46.70;;;22.52;;
42988;SDS011;28622;43.716;20.668;2023-02-18T16:19:59;49.38;;;22.17;;
42988;SDS011;28622;43.716;20.668;2023-02-18T16:22:44;62.13;;;25.27;;
42988;SDS011;28622;43.716;20.668;2023-02-18T16:25:20;50.42;;;22.85;;
42988;SDS011;28622;43.716;20.668;2023-02-18T16:27:52;56.25;;;26.08;;
42988;SDS011;28622;43.716;20.668;2023-02-18T16:30:23;79.85;;;26.67;;
42988;SDS011;28622;43.716;20.668;2023-02-18T16:32:52;62.15;;;26.88;;
42988;SDS011;28622;43.716;20.668;2023-02-18T16:35:19;60.20;;;24.83;;
42988;SDS011;28622;43.716;20.668;2023-02-18T16:37:46;69.00;;;28.45;;
42988;SDS011;28622;43.716;20.668;2023-02-18T16:40:27;69.13;;;28.08;;
42988;SDS011;28622;43.716;20.668;2023-02-18T16:42:56;61.75;;;28.05;;
42988;SDS011;28622;43.716;20.668;2023-02-18T16:45:57;80.25;;;34.05;;
42988;SDS011;28622;43.716;20.668;2023-02-18T16:48:23;61.13;;;28.77;;
42988;SDS011;28622;43.716;20.668;2023-02-18T16:50:53;68.28;;;29.10;;
42988;SDS011;28622;43.716;20.668;2023-02-18T16:53:19;74.35;;;29.92;;
42988;SDS011;28622;43.716;20.668;2023-02-18T16:55:46;77.40;;;29.45;;
42988;SDS011;28622;43.716;20.668;2023-02-18T16:58:14;49.60;;;23.42;;
42988;SDS011;28622;43.716;20.668;2023-02-18T17:00:41;57.70;;;24.80;;
42988;SDS011;28622;43.716;20.668;2023-02-18T17:03:08;73.63;;;27.48;;
42988;SDS011;28622;43.716;20.668;2023-02-18T17:05:35;61.97;;;25.27;;
42988;SDS011;28622;43.716;20.668;2023-02-18T17:10:48;58.97;;;30.10;;
42988;SDS011;28622;43.716;20.668;2023-02-18T17:13:19;52.08;;;23.33;;